Time;durP1;ratioP1;P1;durP2;ratioP2;P2;SDS_P1;SDS_P2;PMS_P1;PMS_P2;Temp;Humidity;BMP_temperature;BMP_pressure;BME280_temperature;BME280_humidity;BME280_pressure;Samples;Min_cycle;Max_cycle;Signal;HPM_P1;HPM_P2
2022/02/12 00:00:56;;;;;;;178.70;21.15;;;;;;;;;;4976227;28;20047;-62
2022/02/12 00:03:24;;;;;;;49.65;17.80;;;;;;;;;;4975805;28;20063;-62
2022/02/12 00:05:52;;;;;;;78.60;18.25;;;;;;;;;;4976068;28;20093;-61
2022/02/12 00:08:18;;;;;;;70.93;16.15;;;;;;;;;;4975641;28;20047;-62
2022/02/12 00:10:45;;;;;;;138.85;17.73;;;;;;;;;;4975747;28;20054;-62
2022/02/12 00:13:12;;;;;;;143.02;21.10;;;;;;;;;;4975335;28;20104;-62
2022/02/12 00:15:39;;;;;;;50.75;16.77;;;;;;;;;;4975380;28;20105;-62
2022/02/12 00:18:06;;;;;;;75.45;17.00;;;;;;;;;;4975445;28;20101;-62
2022/02/12 00:20:33;;;;;;;33.88;15.20;;;;;;;;;;4975611;28;20055;-62
2022/02/12 00:23:00;;;;;;;75.53;17.85;;;;;;;;;;4974975;28;20635;-63
2022/02/12 00:25:26;;;;;;;145.95;18.30;;;;;;;;;;4975177;28;20050;-62
2022/02/12 00:27:53;;;;;;;73.45;17.67;;;;;;;;;;4975409;28;20080;-62
2022/02/12 00:30:20;;;;;;;60.65;16.40;;;;;;;;;;4975458;28;20458;-62
2022/02/12 00:32:46;;;;;;;68.75;16.08;;;;;;;;;;4975130;28;20584;-62
2022/02/12 00:35:13;;;;;;;61.13;16.50;;;;;;;;;;4975188;28;20047;-62
2022/02/12 00:37:39;;;;;;;51.22;15.05;;;;;;;;;;4975227;28;20047;-62
2022/02/12 00:40:07;;;;;;;39.10;14.45;;;;;;;;;;4974131;28;20059;-62
2022/02/12 00:42:33;;;;;;;35.05;14.65;;;;;;;;;;4974844;28;20054;-62
2022/02/12 00:45:00;;;;;;;39.50;14.52;;;;;;;;;;4974955;28;20093;-63
2022/02/12 00:47:28;;;;;;;38.63;14.77;;;;;;;;;;4974872;28;20062;-62
2022/02/12 00:49:55;;;;;;;43.38;14.70;;;;;;;;;;4974956;28;20051;-62
2022/02/12 00:52:22;;;;;;;43.95;14.75;;;;;;;;;;4974602;28;20502;-62
2022/02/12 00:54:48;;;;;;;61.22;15.30;;;;;;;;;;4974954;28;20046;-62
2022/02/12 00:57:15;;;;;;;51.55;15.63;;;;;;;;;;4974948;28;20121;-62
2022/02/12 00:59:43;;;;;;;41.65;14.80;;;;;;;;;;4974924;28;20139;-62
2022/02/12 01:02:09;;;;;;;60.65;14.10;;;;;;;;;;4974566;28;20053;-62
2022/02/12 01:04:36;;;;;;;74.20;14.32;;;;;;;;;;4974525;28;20121;-62
2022/02/12 01:07:03;;;;;;;75.20;14.38;;;;;;;;;;4974586;28;20125;-62
2022/02/12 01:09:29;;;;;;;127.47;15.00;;;;;;;;;;4974442;28;20059;-62
2022/02/12 01:11:56;;;;;;;109.10;15.43;;;;;;;;;;4974498;28;20121;-62
2022/02/12 01:14:23;;;;;;;91.93;15.75;;;;;;;;;;4973940;28;20047;-62
2022/02/12 01:16:49;;;;;;;100.75;16.75;;;;;;;;;;4974418;28;20273;-62
2022/02/12 01:19:16;;;;;;;58.38;13.88;;;;;;;;;;4974308;28;20047;-62
2022/02/12 01:21:42;;;;;;;68.68;15.55;;;;;;;;;;4974538;28;20125;-62
2022/02/12 01:24:09;;;;;;;104.93;15.32;;;;;;;;;;4973818;28;20046;-61
2022/02/12 01:26:36;;;;;;;39.05;13.05;;;;;;;;;;4974207;28;20473;-62
2022/02/12 01:29:04;;;;;;;49.53;14.40;;;;;;;;;;4974185;28;20046;-62
2022/02/12 01:31:31;;;;;;;103.43;14.60;;;;;;;;;;4974105;28;20050;-62
2022/02/12 01:33:58;;;;;;;109.50;15.13;;;;;;;;;;4974101;28;20365;-62
2022/02/12 01:36:25;;;;;;;98.70;16.25;;;;;;;;;;4974096;28;20093;-62
2022/02/12 01:38:51;;;;;;;95.05;16.02;;;;;;;;;;4974198;28;20050;-62
2022/02/12 01:41:18;;;;;;;57.38;14.02;;;;;;;;;;4974368;28;20102;-62
2022/02/12 01:43:44;;;;;;;67.28;14.98;;;;;;;;;;4973754;28;20101;-62
2022/02/12 01:46:11;;;;;;;79.18;13.40;;;;;;;;;;4972640;28;20425;-62
2022/02/12 01:48:41;;;;;;;61.10;13.70;;;;;;;;;;4974292;28;20050;-62
2022/02/12 01:51:08;;;;;;;53.38;12.50;;;;;;;;;;4973707;28;20113;-63
2022/02/12 01:53:34;;;;;;;48.72;13.13;;;;;;;;;;4988542;28;20105;-62
2022/02/12 01:56:01;;;;;;;50.95;13.20;;;;;;;;;;4973823;28;20051;-62
2022/02/12 01:58:28;;;;;;;39.95;14.18;;;;;;;;;;4972528;28;20054;-63
2022/02/12 02:00:54;;;;;;;46.78;13.55;;;;;;;;;;4973729;28;20093;-62
2022/02/12 02:03:21;;;;;;;56.17;12.90;;;;;;;;;;4973460;28;20061;-62
2022/02/12 02:05:48;;;;;;;55.40;11.23;;;;;;;;;;4973494;28;20057;-62
2022/02/12 02:08:15;;;;;;;89.63;14.75;;;;;;;;;;4973353;28;20097;-62
2022/02/12 02:10:42;;;;;;;63.13;12.68;;;;;;;;;;4973515;28;20055;-62
2022/02/12 02:13:21;;;;;;;62.20;11.45;;;;;;;;;;4973160;28;20470;-62
2022/02/12 02:15:51;;;;;;;57.75;12.48;;;;;;;;;;4973042;28;20046;-62
2022/02/12 02:18:18;;;;;;;69.25;14.25;;;;;;;;;;4973260;28;20494;-62
2022/02/12 02:20:44;;;;;;;40.15;12.77;;;;;;;;;;4973419;28;20113;-62
2022/02/12 02:23:11;;;;;;;69.80;12.70;;;;;;;;;;4972847;28;20102;-62
2022/02/12 02:25:38;;;;;;;30.45;12.55;;;;;;;;;;4973867;28;20050;-64
2022/02/12 02:28:05;;;;;;;75.35;15.10;;;;;;;;;;4973142;28;20047;-64
2022/02/12 02:42:36;;;;;;;271.65;19.40;;;;;;;;;;4973183;28;20060;-64
2022/02/12 02:45:03;;;;;;;114.30;15.90;;;;;;;;;;4973033;28;20043;-61
2022/02/12 02:47:33;;;;;;;75.20;15.60;;;;;;;;;;4973288;28;20054;-61
2022/02/12 02:50:01;;;;;;;103.28;15.48;;;;;;;;;;4973009;28;20137;-60
2022/02/12 02:57:58;;;;;;;84.78;15.55;;;;;;;;;;4972881;28;20105;-64
2022/02/12 03:00:25;;;;;;;91.88;13.93;;;;;;;;;;4972790;28;20051;-64
2022/02/12 03:02:52;;;;;;;56.65;12.70;;;;;;;;;;4972651;28;20055;-64
2022/02/12 03:05:18;;;;;;;48.83;14.02;;;;;;;;;;4976634;28;20050;-64
2022/02/12 03:07:45;;;;;;;56.47;12.48;;;;;;;;;;4976899;28;20113;-64
2022/02/12 03:10:11;;;;;;;150.73;14.40;;;;;;;;;;4976634;28;20046;-64
2022/02/12 03:12:38;;;;;;;135.98;16.13;;;;;;;;;;4976533;28;20051;-63
2022/02/12 03:15:07;;;;;;;137.10;14.00;;;;;;;;;;4975829;28;20051;-64
2022/02/12 03:17:33;;;;;;;104.60;15.10;;;;;;;;;;4977423;28;20058;-62
2022/02/12 03:20:00;;;;;;;101.78;13.45;;;;;;;;;;4976532;28;20565;-62
2022/02/12 03:22:26;;;;;;;85.63;14.60;;;;;;;;;;4976101;28;20102;-62
2022/02/12 03:24:53;;;;;;;52.05;13.13;;;;;;;;;;4976802;28;20551;-62
2022/02/12 03:27:19;;;;;;;91.03;15.35;;;;;;;;;;4976582;28;20469;-60
2022/02/12 03:29:46;;;;;;;76.07;13.35;;;;;;;;;;4976588;28;20055;-62
2022/02/12 03:32:13;;;;;;;61.63;14.00;;;;;;;;;;4976155;28;20050;-61
2022/02/12 03:34:39;;;;;;;104.30;15.43;;;;;;;;;;4976390;28;20449;-62
2022/02/12 03:37:06;;;;;;;61.13;14.27;;;;;;;;;;4976206;28;20113;-59
2022/02/12 03:39:32;;;;;;;83.22;14.38;;;;;;;;;;4976326;28;20051;-60
2022/02/12 03:41:59;;;;;;;187.13;19.63;;;;;;;;;;4976146;28;20047;-61
2022/02/12 03:44:26;;;;;;;98.65;14.38;;;;;;;;;;4976053;28;20050;-62
2022/02/12 03:46:52;;;;;;;66.88;14.07;;;;;;;;;;4976173;28;20094;-61
2022/02/12 03:49:19;;;;;;;60.03;13.13;;;;;;;;;;4976040;28;20062;-62
2022/02/12 03:51:45;;;;;;;84.43;12.38;;;;;;;;;;4976189;28;20050;-60
2022/02/12 03:54:12;;;;;;;146.90;13.90;;;;;;;;;;4975661;28;20055;-60
2022/02/12 03:56:39;;;;;;;113.30;13.27;;;;;;;;;;4976269;28;20047;-62
2022/02/12 03:59:06;;;;;;;102.07;14.93;;;;;;;;;;4976679;28;20054;-63
2022/02/12 04:01:32;;;;;;;46.67;12.25;;;;;;;;;;4975836;28;20054;-64
2022/02/12 04:03:59;;;;;;;134.13;14.80;;;;;;;;;;4975646;28;20050;-63
2022/02/12 04:06:25;;;;;;;120.22;16.90;;;;;;;;;;4975679;28;20047;-64
2022/02/12 04:08:52;;;;;;;138.93;16.55;;;;;;;;;;4975719;28;20544;-63
2022/02/12 04:11:21;;;;;;;190.82;20.17;;;;;;;;;;4975570;28;20090;-64
2022/02/12 04:13:48;;;;;;;136.20;15.73;;;;;;;;;;4974835;28;20494;-64
2022/02/12 04:16:15;;;;;;;99.13;15.98;;;;;;;;;;4974083;28;20093;-63
2022/02/12 04:18:41;;;;;;;77.07;14.88;;;;;;;;;;4975500;28;20050;-63
2022/02/12 04:21:08;;;;;;;118.07;22.10;;;;;;;;;;4975405;28;20102;-63
2022/02/12 04:23:34;;;;;;;60.58;16.88;;;;;;;;;;4975221;28;20074;-63
2022/02/12 04:26:03;;;;;;;57.15;16.67;;;;;;;;;;4974217;28;20105;-64
2022/02/12 04:28:35;;;;;;;69.65;13.95;;;;;;;;;;4975349;28;20054;-64
2022/02/12 04:31:05;;;;;;;42.28;14.10;;;;;;;;;;4975498;28;20055;-63
2022/02/12 04:33:32;;;;;;;56.72;13.48;;;;;;;;;;4974976;28;20140;-63
2022/02/12 04:35:59;;;;;;;91.85;14.65;;;;;;;;;;4975266;28;20047;-64
2022/02/12 04:38:27;;;;;;;133.27;16.80;;;;;;;;;;4975186;28;20057;-64
2022/02/12 04:40:54;;;;;;;33.80;14.68;;;;;;;;;;4975091;28;20055;-63
2022/02/12 04:43:41;;;;;;;112.05;16.20;;;;;;;;;;4975393;28;20137;-62
2022/02/12 04:46:11;;;;;;;64.60;14.48;;;;;;;;;;4975976;28;20417;-63
2022/02/12 04:48:38;;;;;;;47.55;13.38;;;;;;;;;;4974324;28;20105;-62
2022/02/12 04:51:04;;;;;;;82.60;14.38;;;;;;;;;;4975073;28;20058;-62
2022/02/12 04:53:31;;;;;;;39.50;14.25;;;;;;;;;;4974876;28;20055;-62
2022/02/12 04:55:58;;;;;;;85.53;15.57;;;;;;;;;;4974920;28;20462;-61
2022/02/12 04:58:24;;;;;;;116.47;14.43;;;;;;;;;;4975004;28;20054;-61
2022/02/12 05:00:51;;;;;;;31.30;12.48;;;;;;;;;;4974800;28;20107;-62
2022/02/12 05:03:17;;;;;;;42.45;14.85;;;;;;;;;;4975064;28;20051;-60
2022/02/12 05:05:44;;;;;;;140.73;15.65;;;;;;;;;;4974800;28;20105;-60
2022/02/12 05:08:11;;;;;;;167.80;16.88;;;;;;;;;;4974803;28;20101;-61
2022/02/12 05:10:39;;;;;;;71.10;14.48;;;;;;;;;;4974583;28;20110;-62
2022/02/12 05:13:06;;;;;;;129.65;14.95;;;;;;;;;;4974417;28;20059;-62
2022/02/12 05:15:32;;;;;;;131.07;14.45;;;;;;;;;;4973811;28;20101;-60
2022/02/12 05:17:59;;;;;;;40.78;14.05;;;;;;;;;;4974758;28;20047;-60
2022/02/12 05:20:25;;;;;;;42.63;13.70;;;;;;;;;;4974510;28;20127;-62
2022/02/12 05:22:52;;;;;;;36.67;13.30;;;;;;;;;;4974160;28;20054;-60
2022/02/12 05:25:19;;;;;;;78.10;14.88;;;;;;;;;;4974385;28;20126;-60
2022/02/12 05:27:46;;;;;;;70.43;14.43;;;;;;;;;;4973932;28;20054;-62
2022/02/12 05:30:12;;;;;;;79.70;12.90;;;;;;;;;;4974144;28;20050;-62
2022/02/12 05:32:41;;;;;;;37.58;12.68;;;;;;;;;;4974076;28;20050;-62
2022/02/12 05:35:07;;;;;;;36.38;13.15;;;;;;;;;;4974027;28;20146;-63
2022/02/12 05:37:34;;;;;;;166.77;14.68;;;;;;;;;;4974237;28;20051;-62
2022/02/12 05:40:01;;;;;;;114.72;15.30;;;;;;;;;;4974145;28;20113;-62
2022/02/12 05:42:27;;;;;;;35.90;12.85;;;;;;;;;;4973921;28;20058;-61
2022/02/12 05:44:54;;;;;;;52.88;13.68;;;;;;;;;;4974033;28;20054;-62
2022/02/12 05:47:21;;;;;;;23.33;12.80;;;;;;;;;;4973842;28;20050;-62
2022/02/12 05:49:47;;;;;;;113.30;14.18;;;;;;;;;;4974018;28;20082;-62
2022/02/12 05:52:14;;;;;;;54.30;13.55;;;;;;;;;;4973505;28;20337;-62
2022/02/12 05:54:40;;;;;;;52.70;12.88;;;;;;;;;;4973952;28;20054;-61
2022/02/12 05:57:07;;;;;;;96.30;13.90;;;;;;;;;;4973736;28;20054;-61
2022/02/12 05:59:34;;;;;;;61.90;13.57;;;;;;;;;;4973813;28;20127;-63
2022/02/12 06:02:02;;;;;;;211.25;16.70;;;;;;;;;;4973450;28;20121;-62
2022/02/12 06:04:30;;;;;;;84.15;13.50;;;;;;;;;;4973895;28;20047;-63
2022/02/12 06:06:56;;;;;;;83.13;14.77;;;;;;;;;;4973754;28;20046;-63
2022/02/12 06:09:23;;;;;;;109.10;14.07;;;;;;;;;;4973724;28;20050;-63
2022/02/12 06:11:51;;;;;;;49.08;12.85;;;;;;;;;;4973842;28;20086;-63
2022/02/12 06:14:17;;;;;;;28.95;10.70;;;;;;;;;;4972424;28;20578;-62
2022/02/12 06:16:44;;;;;;;28.38;12.57;;;;;;;;;;4973618;28;20047;-62
2022/02/12 06:19:10;;;;;;;72.78;13.23;;;;;;;;;;4973476;28;20063;-63
2022/02/12 06:21:37;;;;;;;34.47;12.50;;;;;;;;;;4973369;28;20495;-63
2022/02/12 06:24:04;;;;;;;73.75;13.63;;;;;;;;;;4973077;28;20496;-62
2022/02/12 06:26:31;;;;;;;38.80;12.88;;;;;;;;;;4973256;28;20635;-61
2022/02/12 06:28:57;;;;;;;27.08;11.93;;;;;;;;;;4974196;28;20058;-61
2022/02/12 06:31:24;;;;;;;29.42;12.48;;;;;;;;;;4973197;28;20062;-61
2022/02/12 06:33:51;;;;;;;28.80;12.88;;;;;;;;;;4973125;28;20058;-60
2022/02/12 06:36:17;;;;;;;42.22;12.90;;;;;;;;;;4973148;28;20506;-62
2022/02/12 06:38:44;;;;;;;38.63;12.80;;;;;;;;;;4972643;28;20459;-62
2022/02/12 06:41:10;;;;;;;39.58;12.73;;;;;;;;;;4973279;28;20055;-62
2022/02/12 06:43:37;;;;;;;43.33;13.80;;;;;;;;;;4972753;28;20086;-62
2022/02/12 06:46:04;;;;;;;35.45;13.18;;;;;;;;;;4972854;28;20130;-62
2022/02/12 06:48:31;;;;;;;55.30;15.73;;;;;;;;;;4973164;28;20058;-62
2022/02/12 06:50:58;;;;;;;70.78;13.98;;;;;;;;;;4973018;28;20058;-63
2022/02/12 06:53:24;;;;;;;43.45;14.73;;;;;;;;;;4972562;28;20565;-62
2022/02/12 06:55:51;;;;;;;56.42;13.68;;;;;;;;;;4972971;28;20046;-62
2022/02/12 06:58:20;;;;;;;61.70;13.25;;;;;;;;;;4971898;28;20051;-62
2022/02/12 07:00:47;;;;;;;108.32;14.25;;;;;;;;;;4973126;28;20498;-63
2022/02/12 07:03:13;;;;;;;40.03;12.55;;;;;;;;;;4972660;28;20047;-63
2022/02/12 07:05:40;;;;;;;51.15;13.35;;;;;;;;;;4973048;28;20112;-61
2022/02/12 07:08:07;;;;;;;51.83;12.63;;;;;;;;;;4971670;28;20105;-61
2022/02/12 07:10:34;;;;;;;78.32;14.15;;;;;;;;;;4972785;28;20137;-61
2022/02/12 07:13:02;;;;;;;76.85;15.13;;;;;;;;;;4972575;28;20053;-62
2022/02/12 07:15:28;;;;;;;41.22;13.25;;;;;;;;;;4972041;28;20105;-62
2022/02/12 07:17:55;;;;;;;40.50;14.05;;;;;;;;;;4973038;28;20502;-62
2022/02/12 07:20:21;;;;;;;57.05;13.93;;;;;;;;;;4972683;28;20047;-62
2022/02/12 07:22:48;;;;;;;50.22;12.98;;;;;;;;;;4972419;28;20078;-63
2022/02/12 07:25:16;;;;;;;35.35;13.20;;;;;;;;;;4972615;28;20507;-61
2022/02/12 07:27:43;;;;;;;30.50;14.18;;;;;;;;;;4972829;28;20059;-63
2022/02/12 07:30:14;;;;;;;37.67;14.73;;;;;;;;;;4972561;28;20517;-62
2022/02/12 07:32:41;;;;;;;44.72;16.95;;;;;;;;;;4972525;28;20062;-62
2022/02/12 07:35:11;;;;;;;43.72;18.10;;;;;;;;;;4972647;28;20133;-63
2022/02/12 07:37:38;;;;;;;33.10;15.55;;;;;;;;;;4972781;28;20477;-62
2022/02/12 07:40:06;;;;;;;29.80;14.02;;;;;;;;;;4972650;28;20062;-63
2022/02/12 07:42:33;;;;;;;23.48;12.23;;;;;;;;;;4972371;28;20058;-63
2022/02/12 07:44:59;;;;;;;25.45;12.65;;;;;;;;;;4972459;28;20074;-62
2022/02/12 07:47:26;;;;;;;22.40;11.75;;;;;;;;;;4972324;28;20050;-60
2022/02/12 07:49:53;;;;;;;23.25;12.68;;;;;;;;;;4974175;28;20063;-63
2022/02/12 07:52:20;;;;;;;28.17;12.88;;;;;;;;;;4975818;28;20051;-62
2022/02/12 07:54:46;;;;;;;23.02;12.20;;;;;;;;;;4976104;28;20052;-62
2022/02/12 07:57:13;;;;;;;24.27;12.32;;;;;;;;;;4975943;28;20097;-62
2022/02/12 07:59:40;;;;;;;26.13;12.98;;;;;;;;;;4975946;28;20517;-62
2022/02/12 08:02:07;;;;;;;22.50;12.90;;;;;;;;;;4975654;28;20465;-62
2022/02/12 08:04:34;;;;;;;26.38;12.95;;;;;;;;;;4976060;28;20113;-62
2022/02/12 08:09:46;;;;;;;27.42;13.15;;;;;;;;;;4976262;28;20054;-62
2022/02/12 08:12:18;;;;;;;24.15;13.10;;;;;;;;;;4990293;28;20080;-62
2022/02/12 08:14:49;;;;;;;25.10;13.15;;;;;;;;;;4975183;28;20058;-63
2022/02/12 08:17:17;;;;;;;24.70;13.27;;;;;;;;;;4975994;28;20046;-63
2022/02/12 08:19:44;;;;;;;23.92;12.88;;;;;;;;;;4975671;28;20055;-63
2022/02/12 08:22:11;;;;;;;29.10;13.45;;;;;;;;;;4975178;28;20050;-62
2022/02/12 08:24:41;;;;;;;21.95;12.98;;;;;;;;;;4975190;28;20084;-64
2022/02/12 08:27:11;;;;;;;23.98;12.65;;;;;;;;;;4975489;28;20074;-64
2022/02/12 08:29:40;;;;;;;25.05;12.90;;;;;;;;;;4975615;28;20442;-61
2022/02/12 08:32:07;;;;;;;26.88;13.02;;;;;;;;;;4975123;28;20054;-62
2022/02/12 08:34:34;;;;;;;28.05;13.30;;;;;;;;;;4975288;28;20046;-62
2022/02/12 08:37:01;;;;;;;23.38;12.82;;;;;;;;;;4975476;28;20055;-62
2022/02/12 08:39:28;;;;;;;23.77;12.07;;;;;;;;;;4974328;28;20055;-61
2022/02/12 08:41:55;;;;;;;19.48;11.02;;;;;;;;;;4975372;28;20086;-63
2022/02/12 08:44:21;;;;;;;21.67;10.55;;;;;;;;;;4974996;28;20494;-62
2022/02/12 08:46:48;;;;;;;26.05;12.93;;;;;;;;;;4975079;28;20074;-62
2022/02/12 08:49:15;;;;;;;20.15;10.23;;;;;;;;;;4974963;28;20051;-61
2022/02/12 08:51:41;;;;;;;23.13;11.15;;;;;;;;;;4975075;28;20047;-61
2022/02/12 08:54:12;;;;;;;20.75;10.75;;;;;;;;;;4974630;28;20051;-62
2022/02/12 08:56:40;;;;;;;19.42;10.20;;;;;;;;;;4975047;28;20051;-62
2022/02/12 08:59:07;;;;;;;21.02;10.23;;;;;;;;;;4974869;28;20121;-62
2022/02/12 09:01:33;;;;;;;23.55;10.10;;;;;;;;;;4974084;28;20109;-62
2022/02/12 09:04:00;;;;;;;20.88;9.43;;;;;;;;;;4974599;28;20106;-62
2022/02/12 09:06:26;;;;;;;24.33;10.55;;;;;;;;;;4974666;28;20043;-62
2022/02/12 09:08:55;;;;;;;21.52;10.35;;;;;;;;;;4974888;28;20050;-62
2022/02/12 09:11:22;;;;;;;21.27;10.25;;;;;;;;;;4974703;28;20047;-59
2022/02/12 09:13:51;;;;;;;19.73;9.75;;;;;;;;;;4973987;28;20211;-61
2022/02/12 09:16:19;;;;;;;18.08;10.15;;;;;;;;;;4974388;28;20069;-60
2022/02/12 09:18:46;;;;;;;22.67;10.35;;;;;;;;;;4974650;28;20490;-62
2022/02/12 09:21:13;;;;;;;19.10;10.02;;;;;;;;;;4989451;28;20054;-61
2022/02/12 09:23:39;;;;;;;20.83;9.82;;;;;;;;;;4974112;28;20050;-62
2022/02/12 09:26:07;;;;;;;25.48;11.73;;;;;;;;;;4974409;28;20105;-61
2022/02/12 09:28:33;;;;;;;21.13;10.65;;;;;;;;;;4974222;28;20050;-62
2022/02/12 09:31:00;;;;;;;17.98;10.45;;;;;;;;;;4974471;28;20055;-62
2022/02/12 09:33:26;;;;;;;19.45;11.07;;;;;;;;;;4974203;28;20050;-60
2022/02/12 09:35:56;;;;;;;22.85;10.88;;;;;;;;;;4974236;28;20458;-63
2022/02/12 09:38:26;;;;;;;21.30;10.27;;;;;;;;;;4974039;28;20566;-62
2022/02/12 09:40:53;;;;;;;23.42;11.00;;;;;;;;;;4974111;28;20414;-61
2022/02/12 09:43:22;;;;;;;18.25;9.73;;;;;;;;;;4973760;28;20058;-63
2022/02/12 09:46:14;;;;;;;18.90;10.07;;;;;;;;;;4974058;28;20059;-60
2022/02/12 09:48:44;;;;;;;22.88;11.90;;;;;;;;;;4973076;28;20059;-60
2022/02/12 09:51:12;;;;;;;20.65;10.43;;;;;;;;;;4972888;28;20046;-62
2022/02/12 09:53:38;;;;;;;23.55;9.85;;;;;;;;;;4972517;28;20055;-61
2022/02/12 09:56:05;;;;;;;29.50;11.98;;;;;;;;;;4973863;28;20043;-60
2022/02/12 09:58:32;;;;;;;24.95;11.88;;;;;;;;;;4973744;28;20077;-59
2022/02/12 10:00:58;;;;;;;33.00;11.45;;;;;;;;;;4973940;28;20478;-60
2022/02/12 10:03:25;;;;;;;22.15;10.38;;;;;;;;;;4973439;28;20055;-60
2022/02/12 10:05:55;;;;;;;23.92;11.65;;;;;;;;;;4973898;28;20105;-63
2022/02/12 10:08:22;;;;;;;31.05;12.88;;;;;;;;;;4973932;28;20054;-63
2022/02/12 10:10:51;;;;;;;22.45;9.75;;;;;;;;;;4973570;28;20545;-61
2022/02/12 10:13:19;;;;;;;21.42;10.20;;;;;;;;;;4971989;28;20058;-63
2022/02/12 10:15:51;;;;;;;18.67;10.25;;;;;;;;;;4972748;28;20057;-61
2022/02/12 10:18:19;;;;;;;18.42;9.73;;;;;;;;;;4973487;28;20461;-63
2022/02/12 10:20:46;;;;;;;20.35;9.88;;;;;;;;;;4973382;28;20098;-61
2022/02/12 10:23:13;;;;;;;25.00;9.63;;;;;;;;;;4972939;28;20499;-61
2022/02/12 10:25:44;;;;;;;23.60;10.32;;;;;;;;;;4973279;28;20078;-64
2022/02/12 10:28:12;;;;;;;20.70;8.75;;;;;;;;;;4973182;28;20046;-62
2022/02/12 10:30:39;;;;;;;24.10;9.32;;;;;;;;;;4973386;28;20054;-63
2022/02/12 10:33:07;;;;;;;21.50;10.13;;;;;;;;;;4972988;28;20051;-62
2022/02/12 10:35:35;;;;;;;19.35;8.70;;;;;;;;;;4973263;28;20105;-62
2022/02/12 10:38:10;;;;;;;18.77;8.25;;;;;;;;;;4973120;28;20126;-62
2022/02/12 10:40:39;;;;;;;15.93;7.47;;;;;;;;;;4973530;28;20494;-62
2022/02/12 10:43:06;;;;;;;12.05;6.57;;;;;;;;;;4972023;28;20055;-63
2022/02/12 10:45:33;;;;;;;12.13;7.03;;;;;;;;;;4973099;28;20117;-63
2022/02/12 10:48:00;;;;;;;21.08;7.22;;;;;;;;;;4973016;28;20050;-61
2022/02/12 10:50:28;;;;;;;19.42;8.05;;;;;;;;;;4973237;28;20109;-63
2022/02/12 10:53:00;;;;;;;20.35;8.10;;;;;;;;;;4987927;28;20054;-62
2022/02/12 10:55:31;;;;;;;21.23;8.02;;;;;;;;;;4987875;28;20050;-60
2022/02/12 10:58:12;;;;;;;13.18;7.18;;;;;;;;;;4972966;28;20134;-62
2022/02/12 11:00:42;;;;;;;14.55;7.00;;;;;;;;;;4973309;28;20510;-61
2022/02/12 11:03:16;;;;;;;17.13;6.45;;;;;;;;;;4972601;28;20051;-61
2022/02/12 11:05:48;;;;;;;9.55;5.28;;;;;;;;;;4972982;28;20105;-61
2022/02/12 11:08:15;;;;;;;14.45;5.97;;;;;;;;;;4972912;28;20054;-61
2022/02/12 11:10:42;;;;;;;17.83;6.68;;;;;;;;;;4971614;28;20054;-62
2022/02/12 11:13:09;;;;;;;12.82;5.43;;;;;;;;;;4972459;28;20054;-62
2022/02/12 11:15:36;;;;;;;12.05;4.68;;;;;;;;;;4973015;28;20078;-64
2022/02/12 11:18:12;;;;;;;11.73;5.85;;;;;;;;;;4975482;28;20050;-63
2022/02/12 11:20:40;;;;;;;11.90;4.90;;;;;;;;;;4974325;28;20084;-63
2022/02/12 11:23:19;;;;;;;9.20;4.65;;;;;;;;;;4974333;28;20075;-63
2022/02/12 11:25:50;;;;;;;11.63;4.38;;;;;;;;;;4979028;28;20050;-64
2022/02/12 11:28:20;;;;;;;9.07;3.90;;;;;;;;;;4979402;28;20101;-64
2022/02/12 11:30:46;;;;;;;8.00;3.75;;;;;;;;;;4979448;28;20466;-63
2022/02/12 11:33:22;;;;;;;10.30;4.47;;;;;;;;;;4978946;28;20055;-63
2022/02/12 11:36:11;;;;;;;8.18;3.60;;;;;;;;;;4978884;28;20059;-63
2022/02/12 11:38:41;;;;;;;9.65;4.20;;;;;;;;;;4978705;28;20043;-62
2022/02/12 11:41:25;;;;;;;7.18;3.53;;;;;;;;;;4978144;28;20122;-64
2022/02/12 11:43:53;;;;;;;8.88;3.85;;;;;;;;;;4993288;28;20055;-63
2022/02/12 11:47:02;;;;;;;8.60;4.55;;;;;;;;;;4978656;28;20062;-62
2022/02/12 11:49:31;;;;;;;9.23;4.10;;;;;;;;;;4975182;28;20055;-63
2022/02/12 11:52:09;;;;;;;9.98;4.13;;;;;;;;;;4977244;28;20078;-62
2022/02/12 11:54:58;;;;;;;9.07;3.90;;;;;;;;;;4976114;28;20051;-62
2022/02/12 11:57:24;;;;;;;6.43;3.33;;;;;;;;;;4976023;28;20054;-61
2022/02/12 12:00:11;;;;;;;7.68;3.90;;;;;;;;;;4976103;28;20054;-62
2022/02/12 12:02:48;;;;;;;5.95;3.05;;;;;;;;;;4972009;28;20434;-61
2022/02/12 12:05:23;;;;;;;5.32;3.47;;;;;;;;;;4976054;28;20426;-64
2022/02/12 12:07:59;;;;;;;4.13;2.50;;;;;;;;;;4976202;28;20058;-64
2022/02/12 12:10:30;;;;;;;4.07;2.00;;;;;;;;;;4975785;28;20074;-61
2022/02/12 12:13:22;;;;;;;5.38;2.03;;;;;;;;;;4975543;28;20050;-61
2022/02/12 12:15:50;;;;;;;3.33;2.00;;;;;;;;;;4972736;28;20086;-60
2022/02/12 12:18:16;;;;;;;5.30;2.10;;;;;;;;;;4976069;28;20046;-61
2022/02/12 12:20:44;;;;;;;3.25;1.90;;;;;;;;;;4975704;28;20054;-60
2022/02/12 12:23:14;;;;;;;4.68;2.15;;;;;;;;;;4975258;28;20433;-62
2022/02/12 12:26:04;;;;;;;3.75;1.77;;;;;;;;;;4975497;28;20055;-61
2022/02/12 12:28:41;;;;;;;3.85;2.00;;;;;;;;;;4975683;28;20723;-59
2022/02/12 12:31:17;;;;;;;3.67;1.98;;;;;;;;;;4975528;28;20078;-61
2022/02/12 12:33:45;;;;;;;3.63;2.65;;;;;;;;;;4975291;28;20050;-62
2022/02/12 12:36:13;;;;;;;5.03;2.50;;;;;;;;;;4974222;28;20054;-60
2022/02/12 12:38:41;;;;;;;3.70;2.10;;;;;;;;;;4975411;28;20445;-63
2022/02/12 12:41:20;;;;;;;5.30;2.33;;;;;;;;;;4975297;28;20124;-59
2022/02/12 12:43:47;;;;;;;4.70;2.22;;;;;;;;;;4975202;28;20051;-61
2022/02/12 12:46:13;;;;;;;4.43;2.00;;;;;;;;;;4990263;28;20133;-62
2022/02/12 12:48:40;;;;;;;4.70;2.30;;;;;;;;;;4975016;28;20043;-61
2022/02/12 12:51:07;;;;;;;4.50;1.98;;;;;;;;;;4975038;28;20106;-61
2022/02/12 12:53:34;;;;;;;5.03;2.35;;;;;;;;;;4973574;28;20101;-61
2022/02/12 12:56:00;;;;;;;4.45;2.60;;;;;;;;;;4975066;28;20051;-60
2022/02/12 12:58:27;;;;;;;4.28;2.35;;;;;;;;;;4974923;28;20470;-63
2022/02/12 13:01:07;;;;;;;3.92;1.80;;;;;;;;;;4975000;28;20490;-61
2022/02/12 13:03:45;;;;;;;3.30;1.92;;;;;;;;;;4974773;28;20113;-60
2022/02/12 13:06:14;;;;;;;3.53;1.90;;;;;;;;;;4974964;28;20054;-62
2022/02/12 13:08:40;;;;;;;3.42;1.85;;;;;;;;;;4975064;28;20101;-63
2022/02/12 13:11:09;;;;;;;6.43;2.33;;;;;;;;;;4973678;28;20051;-63
2022/02/12 13:13:36;;;;;;;4.82;1.90;;;;;;;;;;4974620;28;20106;-63
2022/02/12 13:16:07;;;;;;;2.38;1.98;;;;;;;;;;4974300;28;20050;-62
2022/02/12 13:18:34;;;;;;;5.22;2.38;;;;;;;;;;4973714;28;20102;-63
2022/02/12 13:21:13;;;;;;;3.78;1.77;;;;;;;;;;4974772;28;20050;-63
2022/02/12 13:23:46;;;;;;;3.38;1.88;;;;;;;;;;4974277;28;20106;-61
2022/02/12 13:26:22;;;;;;;3.20;1.85;;;;;;;;;;4974796;28;20097;-63
2022/02/12 13:28:51;;;;;;;4.97;2.03;;;;;;;;;;4974426;28;20105;-64
2022/02/12 13:31:17;;;;;;;5.93;2.50;;;;;;;;;;4974175;28;20479;-64
2022/02/12 13:33:55;;;;;;;3.55;2.05;;;;;;;;;;4988856;28;20050;-64
2022/02/12 13:36:22;;;;;;;2.33;2.08;;;;;;;;;;4974158;28;20513;-62
2022/02/12 13:38:49;;;;;;;3.40;2.13;;;;;;;;;;4974387;28;20057;-63
2022/02/12 13:41:15;;;;;;;3.55;1.73;;;;;;;;;;4974184;28;20051;-64
2022/02/12 13:43:48;;;;;;;5.50;2.55;;;;;;;;;;4973909;28;20078;-61
2022/02/12 13:46:19;;;;;;;4.07;2.10;;;;;;;;;;4974316;28;20129;-62
2022/02/12 13:48:46;;;;;;;4.70;2.20;;;;;;;;;;4973836;28;20506;-61
2022/02/12 13:51:15;;;;;;;4.10;1.88;;;;;;;;;;4973982;28;20050;-63
2022/02/12 13:53:52;;;;;;;4.15;2.20;;;;;;;;;;4973757;28;20058;-61
2022/02/12 13:56:35;;;;;;;5.85;2.35;;;;;;;;;;4973919;28;20051;-62
2022/02/12 13:59:01;;;;;;;3.72;2.17;;;;;;;;;;4973935;28;20043;-63
2022/02/12 14:01:28;;;;;;;2.92;2.10;;;;;;;;;;4973945;28;20628;-63
2022/02/12 14:03:54;;;;;;;5.25;2.70;;;;;;;;;;4973836;28;20050;-61
2022/02/12 14:06:21;;;;;;;3.83;2.25;;;;;;;;;;4973731;28;20059;-61
2022/02/12 14:08:47;;;;;;;5.80;2.50;;;;;;;;;;4973727;28;20051;-64
2022/02/12 14:11:15;;;;;;;6.13;2.47;;;;;;;;;;4973766;28;20082;-60
2022/02/12 14:13:41;;;;;;;5.47;2.63;;;;;;;;;;4973374;28;20097;-61
2022/02/12 14:16:08;;;;;;;5.25;2.40;;;;;;;;;;4972843;28;20050;-64
2022/02/12 14:18:34;;;;;;;7.18;3.28;;;;;;;;;;4973788;28;20050;-60
2022/02/12 14:21:05;;;;;;;8.20;2.65;;;;;;;;;;4973465;28;20110;-62
2022/02/12 14:23:32;;;;;;;5.40;2.97;;;;;;;;;;4973098;28;20495;-61
2022/02/12 14:25:59;;;;;;;3.83;2.55;;;;;;;;;;4974023;28;20082;-61
2022/02/12 14:28:25;;;;;;;6.65;2.70;;;;;;;;;;4973330;28;20086;-60
2022/02/12 14:30:52;;;;;;;3.97;2.63;;;;;;;;;;4973253;28;20085;-63
2022/02/12 14:33:18;;;;;;;6.50;2.83;;;;;;;;;;4973110;28;20058;-62
2022/02/12 14:35:49;;;;;;;3.17;2.58;;;;;;;;;;4973264;28;20059;-63
2022/02/12 14:38:19;;;;;;;6.15;2.85;;;;;;;;;;4973455;28;20129;-61
2022/02/12 14:40:46;;;;;;;7.43;3.13;;;;;;;;;;4973414;28;20263;-60
2022/02/12 14:43:12;;;;;;;7.30;3.40;;;;;;;;;;4972835;28;20101;-64
2022/02/12 14:45:39;;;;;;;9.38;3.58;;;;;;;;;;4973311;28;20058;-61
2022/02/12 14:48:06;;;;;;;6.03;3.55;;;;;;;;;;4973074;28;20082;-61
2022/02/12 14:50:32;;;;;;;6.85;3.80;;;;;;;;;;4973151;28;20054;-62